sensor_id;sensor_type;location;lat;lon;timestamp;P1;durP1;ratioP1;P2;durP2;ratioP2
70929;SDS011;58588;48.102;19.682;2022-09-03T00:02:43;7.85;;;3.20;;
70929;SDS011;58588;48.102;19.682;2022-09-03T00:05:50;13.00;;;3.63;;
70929;SDS011;58588;48.102;19.682;2022-09-03T00:09:02;7.03;;;3.10;;
70929;SDS011;58588;48.102;19.682;2022-09-03T00:12:12;8.70;;;2.90;;
70929;SDS011;58588;48.102;19.682;2022-09-03T00:15:19;8.13;;;3.30;;
70929;SDS011;58588;48.102;19.682;2022-09-03T00:18:24;6.80;;;2.92;;
70929;SDS011;58588;48.102;19.682;2022-09-03T00:21:35;5.97;;;2.83;;
70929;SDS011;58588;48.102;19.682;2022-09-03T00:24:40;7.63;;;2.90;;
70929;SDS011;58588;48.102;19.682;2022-09-03T00:27:47;6.50;;;2.92;;
70929;SDS011;58588;48.102;19.682;2022-09-03T00:30:58;8.65;;;3.50;;
70929;SDS011;58588;48.102;19.682;2022-09-03T00:34:06;9.10;;;3.25;;
70929;SDS011;58588;48.102;19.682;2022-09-03T00:37:13;8.15;;;3.05;;
70929;SDS011;58588;48.102;19.682;2022-09-03T00:40:19;10.53;;;3.20;;
70929;SDS011;58588;48.102;19.682;2022-09-03T00:43:36;9.05;;;3.70;;
70929;SDS011;58588;48.102;19.682;2022-09-03T00:46:51;6.82;;;3.13;;
70929;SDS011;58588;48.102;19.682;2022-09-03T00:50:02;8.23;;;3.10;;
70929;SDS011;58588;48.102;19.682;2022-09-03T00:53:09;10.15;;;3.17;;
70929;SDS011;58588;48.102;19.682;2022-09-03T00:56:19;7.77;;;3.10;;
70929;SDS011;58588;48.102;19.682;2022-09-03T00:59:30;9.23;;;3.22;;
70929;SDS011;58588;48.102;19.682;2022-09-03T01:02:46;7.90;;;3.28;;
70929;SDS011;58588;48.102;19.682;2022-09-03T01:06:00;7.10;;;3.10;;
70929;SDS011;58588;48.102;19.682;2022-09-03T01:09:15;7.72;;;3.50;;
70929;SDS011;58588;48.102;19.682;2022-09-03T01:12:32;8.03;;;3.13;;
70929;SDS011;58588;48.102;19.682;2022-09-03T01:15:42;7.97;;;3.00;;
70929;SDS011;58588;48.102;19.682;2022-09-03T01:18:51;8.07;;;3.05;;
70929;SDS011;58588;48.102;19.682;2022-09-03T01:22:09;7.20;;;3.20;;
70929;SDS011;58588;48.102;19.682;2022-09-03T01:25:26;7.35;;;3.00;;
70929;SDS011;58588;48.102;19.682;2022-09-03T01:28:47;8.37;;;3.27;;
70929;SDS011;58588;48.102;19.682;2022-09-03T01:32:01;7.00;;;3.00;;
70929;SDS011;58588;48.102;19.682;2022-09-03T01:35:17;7.47;;;3.20;;
70929;SDS011;58588;48.102;19.682;2022-09-03T01:38:29;7.43;;;3.00;;
70929;SDS011;58588;48.102;19.682;2022-09-03T01:41:39;7.05;;;3.13;;
70929;SDS011;58588;48.102;19.682;2022-09-03T01:45:14;8.50;;;3.13;;
70929;SDS011;58588;48.102;19.682;2022-09-03T01:48:30;7.57;;;3.05;;
70929;SDS011;58588;48.102;19.682;2022-09-03T01:51:38;7.40;;;3.53;;
70929;SDS011;58588;48.102;19.682;2022-09-03T01:54:43;7.35;;;3.15;;
70929;SDS011;58588;48.102;19.682;2022-09-03T01:57:55;8.52;;;2.60;;
70929;SDS011;58588;48.102;19.682;2022-09-03T02:01:04;7.37;;;2.80;;
70929;SDS011;58588;48.102;19.682;2022-09-03T02:04:16;7.30;;;3.20;;
70929;SDS011;58588;48.102;19.682;2022-09-03T02:07:22;8.73;;;3.50;;
70929;SDS011;58588;48.102;19.682;2022-09-03T02:10:26;8.18;;;3.08;;
70929;SDS011;58588;48.102;19.682;2022-09-03T02:13:33;7.13;;;3.00;;
70929;SDS011;58588;48.102;19.682;2022-09-03T02:16:39;7.17;;;2.93;;
70929;SDS011;58588;48.102;19.682;2022-09-03T02:19:43;7.78;;;3.08;;
70929;SDS011;58588;48.102;19.682;2022-09-03T02:22:45;7.70;;;3.08;;
70929;SDS011;58588;48.102;19.682;2022-09-03T02:25:49;8.15;;;3.28;;
70929;SDS011;58588;48.102;19.682;2022-09-03T02:28:55;8.88;;;3.00;;
70929;SDS011;58588;48.102;19.682;2022-09-03T02:31:59;7.33;;;3.03;;
70929;SDS011;58588;48.102;19.682;2022-09-03T02:35:01;7.53;;;3.40;;
70929;SDS011;58588;48.102;19.682;2022-09-03T02:38:10;6.90;;;3.05;;
70929;SDS011;58588;48.102;19.682;2022-09-03T02:41:13;9.10;;;3.17;;
70929;SDS011;58588;48.102;19.682;2022-09-03T02:44:16;9.60;;;3.10;;
70929;SDS011;58588;48.102;19.682;2022-09-03T02:47:27;8.50;;;2.73;;
70929;SDS011;58588;48.102;19.682;2022-09-03T02:50:31;8.50;;;3.08;;
70929;SDS011;58588;48.102;19.682;2022-09-03T02:53:41;8.00;;;3.10;;
70929;SDS011;58588;48.102;19.682;2022-09-03T02:56:42;7.47;;;3.17;;
70929;SDS011;58588;48.102;19.682;2022-09-03T02:59:47;7.30;;;3.35;;
70929;SDS011;58588;48.102;19.682;2022-09-03T03:02:50;7.03;;;3.10;;
70929;SDS011;58588;48.102;19.682;2022-09-03T03:05:52;6.88;;;3.00;;
70929;SDS011;58588;48.102;19.682;2022-09-03T03:08:56;7.82;;;3.10;;
70929;SDS011;58588;48.102;19.682;2022-09-03T03:11:59;9.65;;;3.10;;
70929;SDS011;58588;48.102;19.682;2022-09-03T03:15:01;5.72;;;2.35;;
70929;SDS011;58588;48.102;19.682;2022-09-03T03:18:04;7.10;;;3.03;;
70929;SDS011;58588;48.102;19.682;2022-09-03T03:21:09;7.07;;;3.10;;
70929;SDS011;58588;48.102;19.682;2022-09-03T03:24:11;9.45;;;3.40;;
70929;SDS011;58588;48.102;19.682;2022-09-03T03:27:13;7.47;;;3.08;;
70929;SDS011;58588;48.102;19.682;2022-09-03T03:30:15;9.20;;;3.13;;
70929;SDS011;58588;48.102;19.682;2022-09-03T03:33:20;8.33;;;3.03;;
70929;SDS011;58588;48.102;19.682;2022-09-03T03:36:23;7.30;;;3.00;;
70929;SDS011;58588;48.102;19.682;2022-09-03T03:39:26;6.78;;;2.80;;
70929;SDS011;58588;48.102;19.682;2022-09-03T03:42:28;7.18;;;3.15;;
70929;SDS011;58588;48.102;19.682;2022-09-03T03:45:32;8.25;;;3.00;;
70929;SDS011;58588;48.102;19.682;2022-09-03T03:48:36;9.63;;;3.27;;
70929;SDS011;58588;48.102;19.682;2022-09-03T03:51:38;9.45;;;3.25;;
70929;SDS011;58588;48.102;19.682;2022-09-03T03:54:40;8.77;;;3.20;;
70929;SDS011;58588;48.102;19.682;2022-09-03T03:57:42;7.25;;;3.42;;
70929;SDS011;58588;48.102;19.682;2022-09-03T04:00:44;7.85;;;3.25;;
70929;SDS011;58588;48.102;19.682;2022-09-03T04:03:50;10.07;;;3.30;;
70929;SDS011;58588;48.102;19.682;2022-09-03T04:06:52;7.40;;;2.90;;
70929;SDS011;58588;48.102;19.682;2022-09-03T04:09:54;7.95;;;3.35;;
70929;SDS011;58588;48.102;19.682;2022-09-03T04:12:56;7.90;;;3.15;;
70929;SDS011;58588;48.102;19.682;2022-09-03T04:16:01;7.03;;;2.90;;
70929;SDS011;58588;48.102;19.682;2022-09-03T04:19:06;7.10;;;2.90;;
70929;SDS011;58588;48.102;19.682;2022-09-03T04:22:07;8.27;;;3.00;;
70929;SDS011;58588;48.102;19.682;2022-09-03T04:25:09;7.55;;;3.22;;
70929;SDS011;58588;48.102;19.682;2022-09-03T04:28:11;7.15;;;2.83;;
70929;SDS011;58588;48.102;19.682;2022-09-03T04:31:14;9.38;;;3.20;;
70929;SDS011;58588;48.102;19.682;2022-09-03T04:34:21;7.63;;;2.83;;
70929;SDS011;58588;48.102;19.682;2022-09-03T04:37:23;7.60;;;2.70;;
70929;SDS011;58588;48.102;19.682;2022-09-03T04:40:24;7.45;;;3.38;;
70929;SDS011;58588;48.102;19.682;2022-09-03T04:43:26;7.68;;;2.72;;
70929;SDS011;58588;48.102;19.682;2022-09-03T04:46:28;7.05;;;2.80;;
70929;SDS011;58588;48.102;19.682;2022-09-03T04:49:33;9.20;;;3.20;;
70929;SDS011;58588;48.102;19.682;2022-09-03T04:52:35;9.43;;;3.20;;
70929;SDS011;58588;48.102;19.682;2022-09-03T04:55:37;9.30;;;3.10;;
70929;SDS011;58588;48.102;19.682;2022-09-03T04:58:39;7.07;;;3.17;;
70929;SDS011;58588;48.102;19.682;2022-09-03T05:01:43;10.02;;;3.08;;
70929;SDS011;58588;48.102;19.682;2022-09-03T05:04:46;8.20;;;3.00;;
70929;SDS011;58588;48.102;19.682;2022-09-03T05:07:48;7.45;;;2.72;;
70929;SDS011;58588;48.102;19.682;2022-09-03T05:10:56;9.18;;;3.50;;
70929;SDS011;58588;48.102;19.682;2022-09-03T05:13:58;7.80;;;3.35;;
70929;SDS011;58588;48.102;19.682;2022-09-03T05:17:01;9.43;;;3.45;;
70929;SDS011;58588;48.102;19.682;2022-09-03T05:20:04;10.70;;;3.50;;
70929;SDS011;58588;48.102;19.682;2022-09-03T05:23:07;8.32;;;3.38;;
70929;SDS011;58588;48.102;19.682;2022-09-03T05:26:10;9.25;;;3.60;;
70929;SDS011;58588;48.102;19.682;2022-09-03T05:29:12;10.27;;;3.67;;
70929;SDS011;58588;48.102;19.682;2022-09-03T05:32:15;8.30;;;3.42;;
70929;SDS011;58588;48.102;19.682;2022-09-03T05:35:18;8.27;;;3.60;;
70929;SDS011;58588;48.102;19.682;2022-09-03T05:38:20;9.27;;;3.78;;
70929;SDS011;58588;48.102;19.682;2022-09-03T05:41:22;13.90;;;3.50;;
70929;SDS011;58588;48.102;19.682;2022-09-03T05:44:24;8.63;;;3.65;;
70929;SDS011;58588;48.102;19.682;2022-09-03T05:47:26;8.10;;;3.38;;
70929;SDS011;58588;48.102;19.682;2022-09-03T05:50:29;9.33;;;4.23;;
70929;SDS011;58588;48.102;19.682;2022-09-03T05:53:32;8.10;;;3.35;;
70929;SDS011;58588;48.102;19.682;2022-09-03T05:56:35;8.20;;;3.55;;
70929;SDS011;58588;48.102;19.682;2022-09-03T05:59:39;8.48;;;3.53;;
70929;SDS011;58588;48.102;19.682;2022-09-03T06:02:40;8.40;;;3.55;;
70929;SDS011;58588;48.102;19.682;2022-09-03T06:05:49;11.60;;;3.57;;
70929;SDS011;58588;48.102;19.682;2022-09-03T06:08:52;8.23;;;3.60;;
70929;SDS011;58588;48.102;19.682;2022-09-03T06:11:54;10.25;;;3.50;;
70929;SDS011;58588;48.102;19.682;2022-09-03T06:14:56;7.47;;;3.38;;
70929;SDS011;58588;48.102;19.682;2022-09-03T06:17:58;8.63;;;3.28;;
70929;SDS011;58588;48.102;19.682;2022-09-03T06:21:02;9.83;;;4.70;;
70929;SDS011;58588;48.102;19.682;2022-09-03T06:24:05;8.93;;;3.63;;
70929;SDS011;58588;48.102;19.682;2022-09-03T06:27:07;7.53;;;3.63;;
70929;SDS011;58588;48.102;19.682;2022-09-03T06:30:09;7.72;;;3.10;;
70929;SDS011;58588;48.102;19.682;2022-09-03T06:33:12;10.35;;;3.30;;
70929;SDS011;58588;48.102;19.682;2022-09-03T06:36:19;6.97;;;2.97;;
70929;SDS011;58588;48.102;19.682;2022-09-03T06:39:22;8.48;;;3.38;;
70929;SDS011;58588;48.102;19.682;2022-09-03T06:42:26;10.32;;;3.40;;
70929;SDS011;58588;48.102;19.682;2022-09-03T06:45:28;7.75;;;3.22;;
70929;SDS011;58588;48.102;19.682;2022-09-03T06:48:31;8.82;;;3.13;;
70929;SDS011;58588;48.102;19.682;2022-09-03T06:51:35;6.67;;;2.83;;
70929;SDS011;58588;48.102;19.682;2022-09-03T06:54:38;9.70;;;2.83;;
70929;SDS011;58588;48.102;19.682;2022-09-03T06:57:39;10.07;;;2.97;;
70929;SDS011;58588;48.102;19.682;2022-09-03T07:00:41;8.23;;;3.13;;
70929;SDS011;58588;48.102;19.682;2022-09-03T07:03:46;6.78;;;2.95;;
70929;SDS011;58588;48.102;19.682;2022-09-03T07:06:56;7.47;;;2.83;;
70929;SDS011;58588;48.102;19.682;2022-09-03T07:09:58;6.88;;;2.85;;
70929;SDS011;58588;48.102;19.682;2022-09-03T07:13:00;7.03;;;2.80;;
70929;SDS011;58588;48.102;19.682;2022-09-03T07:16:02;7.45;;;2.72;;
70929;SDS011;58588;48.102;19.682;2022-09-03T07:19:06;6.15;;;2.30;;
70929;SDS011;58588;48.102;19.682;2022-09-03T07:22:09;5.80;;;2.30;;
70929;SDS011;58588;48.102;19.682;2022-09-03T07:25:12;6.28;;;2.40;;
70929;SDS011;58588;48.102;19.682;2022-09-03T07:28:14;7.43;;;2.50;;
70929;SDS011;58588;48.102;19.682;2022-09-03T07:31:17;8.30;;;2.70;;
70929;SDS011;58588;48.102;19.682;2022-09-03T07:34:24;7.60;;;3.10;;
70929;SDS011;58588;48.102;19.682;2022-09-03T07:37:28;7.10;;;3.13;;
70929;SDS011;58588;48.102;19.682;2022-09-03T07:40:29;7.00;;;2.83;;
70929;SDS011;58588;48.102;19.682;2022-09-03T07:43:33;7.20;;;2.60;;
70929;SDS011;58588;48.102;19.682;2022-09-03T07:46:37;9.57;;;2.97;;
70929;SDS011;58588;48.102;19.682;2022-09-03T07:49:39;7.30;;;2.78;;
70929;SDS011;58588;48.102;19.682;2022-09-03T07:52:42;9.47;;;2.77;;
70929;SDS011;58588;48.102;19.682;2022-09-03T07:55:44;7.95;;;2.83;;
70929;SDS011;58588;48.102;19.682;2022-09-03T07:58:47;6.47;;;2.47;;
70929;SDS011;58588;48.102;19.682;2022-09-03T08:01:48;11.75;;;5.18;;
70929;SDS011;58588;48.102;19.682;2022-09-03T08:04:51;9.35;;;2.83;;
70929;SDS011;58588;48.102;19.682;2022-09-03T08:07:55;8.97;;;2.63;;
70929;SDS011;58588;48.102;19.682;2022-09-03T08:11:06;10.95;;;3.40;;
70929;SDS011;58588;48.102;19.682;2022-09-03T08:14:23;6.97;;;2.10;;
70929;SDS011;58588;48.102;19.682;2022-09-03T08:17:42;7.88;;;2.60;;
70929;SDS011;58588;48.102;19.682;2022-09-03T08:20:58;6.75;;;2.50;;
70929;SDS011;58588;48.102;19.682;2022-09-03T11:49:42;6.80;;;1.90;;
70929;SDS011;58588;48.102;19.682;2022-09-03T11:52:47;6.28;;;1.80;;
70929;SDS011;58588;48.102;19.682;2022-09-03T11:55:51;6.25;;;1.67;;
70929;SDS011;58588;48.102;19.682;2022-09-03T11:59:03;6.33;;;1.70;;
70929;SDS011;58588;48.102;19.682;2022-09-03T12:02:21;5.38;;;1.70;;
70929;SDS011;58588;48.102;19.682;2022-09-03T12:05:30;6.57;;;1.65;;
70929;SDS011;58588;48.102;19.682;2022-09-03T12:08:54;6.13;;;1.63;;
70929;SDS011;58588;48.102;19.682;2022-09-03T12:12:11;5.93;;;1.48;;
70929;SDS011;58588;48.102;19.682;2022-09-03T12:15:41;4.33;;;1.33;;
70929;SDS011;58588;48.102;19.682;2022-09-03T12:19:00;4.97;;;1.52;;
70929;SDS011;58588;48.102;19.682;2022-09-03T12:22:13;5.13;;;1.58;;
70929;SDS011;58588;48.102;19.682;2022-09-03T12:25:15;7.20;;;1.60;;
70929;SDS011;58588;48.102;19.682;2022-09-03T12:28:19;4.55;;;1.20;;
70929;SDS011;58588;48.102;19.682;2022-09-03T12:31:24;5.10;;;1.60;;
70929;SDS011;58588;48.102;19.682;2022-09-03T12:34:30;4.65;;;1.50;;
70929;SDS011;58588;48.102;19.682;2022-09-03T12:37:33;4.78;;;1.38;;
70929;SDS011;58588;48.102;19.682;2022-09-03T12:40:41;4.82;;;1.40;;
70929;SDS011;58588;48.102;19.682;2022-09-03T12:43:47;4.55;;;1.42;;
70929;SDS011;58588;48.102;19.682;2022-09-03T12:46:58;4.50;;;1.40;;
70929;SDS011;58588;48.102;19.682;2022-09-03T12:50:04;4.30;;;1.30;;
70929;SDS011;58588;48.102;19.682;2022-09-03T12:53:09;7.97;;;1.42;;
70929;SDS011;58588;48.102;19.682;2022-09-03T12:56:13;5.85;;;1.30;;
70929;SDS011;58588;48.102;19.682;2022-09-03T12:59:16;5.15;;;1.50;;
70929;SDS011;58588;48.102;19.682;2022-09-03T13:02:21;4.70;;;1.30;;
70929;SDS011;58588;48.102;19.682;2022-09-03T13:05:28;5.13;;;1.23;;
70929;SDS011;58588;48.102;19.682;2022-09-03T13:08:37;4.78;;;1.60;;
70929;SDS011;58588;48.102;19.682;2022-09-03T13:11:44;5.95;;;1.23;;
70929;SDS011;58588;48.102;19.682;2022-09-03T13:14:47;4.32;;;1.27;;
70929;SDS011;58588;48.102;19.682;2022-09-03T13:18:09;5.23;;;1.50;;
70929;SDS011;58588;48.102;19.682;2022-09-03T13:21:28;9.30;;;1.60;;
70929;SDS011;58588;48.102;19.682;2022-09-03T13:28:15;4.20;;;1.27;;
70929;SDS011;58588;48.102;19.682;2022-09-03T13:31:28;4.60;;;1.60;;
70929;SDS011;58588;48.102;19.682;2022-09-03T13:34:36;4.57;;;1.47;;
70929;SDS011;58588;48.102;19.682;2022-09-03T13:37:42;5.82;;;1.30;;
70929;SDS011;58588;48.102;19.682;2022-09-03T13:40:50;6.13;;;1.40;;
70929;SDS011;58588;48.102;19.682;2022-09-03T13:43:56;5.10;;;1.48;;
70929;SDS011;58588;48.102;19.682;2022-09-03T13:47:06;5.00;;;1.42;;
70929;SDS011;58588;48.102;19.682;2022-09-03T13:50:15;5.00;;;1.40;;
70929;SDS011;58588;48.102;19.682;2022-09-03T13:53:23;5.25;;;1.52;;
70929;SDS011;58588;48.102;19.682;2022-09-03T13:56:46;4.18;;;1.30;;
70929;SDS011;58588;48.102;19.682;2022-09-03T13:59:57;4.90;;;1.45;;
70929;SDS011;58588;48.102;19.682;2022-09-03T14:03:05;5.85;;;1.50;;
70929;SDS011;58588;48.102;19.682;2022-09-03T14:06:13;6.07;;;1.67;;
70929;SDS011;58588;48.102;19.682;2022-09-03T14:09:26;4.55;;;1.48;;
70929;SDS011;58588;48.102;19.682;2022-09-03T14:12:38;7.93;;;1.27;;
70929;SDS011;58588;48.102;19.682;2022-09-03T14:15:46;5.10;;;1.13;;
70929;SDS011;58588;48.102;19.682;2022-09-03T14:18:54;4.15;;;1.40;;
70929;SDS011;58588;48.102;19.682;2022-09-03T14:22:00;4.80;;;1.50;;
70929;SDS011;58588;48.102;19.682;2022-09-03T14:25:10;6.13;;;1.38;;
70929;SDS011;58588;48.102;19.682;2022-09-03T14:28:19;6.55;;;1.60;;
70929;SDS011;58588;48.102;19.682;2022-09-03T14:31:40;5.55;;;1.40;;
70929;SDS011;58588;48.102;19.682;2022-09-03T14:35:06;4.75;;;1.50;;
70929;SDS011;58588;48.102;19.682;2022-09-03T14:38:28;6.37;;;1.50;;
70929;SDS011;58588;48.102;19.682;2022-09-03T14:45:20;4.55;;;1.48;;
70929;SDS011;58588;48.102;19.682;2022-09-03T14:48:48;3.90;;;1.30;;
70929;SDS011;58588;48.102;19.682;2022-09-03T14:52:16;5.57;;;1.70;;
70929;SDS011;58588;48.102;19.682;2022-09-03T14:55:31;5.40;;;1.30;;
70929;SDS011;58588;48.102;19.682;2022-09-03T14:59:04;4.85;;;1.70;;
70929;SDS011;58588;48.102;19.682;2022-09-03T15:02:22;6.63;;;2.22;;
70929;SDS011;58588;48.102;19.682;2022-09-03T15:05:41;6.50;;;1.38;;
70929;SDS011;58588;48.102;19.682;2022-09-03T15:09:08;6.63;;;1.40;;
70929;SDS011;58588;48.102;19.682;2022-09-03T15:12:20;8.57;;;2.27;;
70929;SDS011;58588;48.102;19.682;2022-09-03T15:15:26;7.00;;;1.58;;
70929;SDS011;58588;48.102;19.682;2022-09-03T15:18:41;6.53;;;1.42;;
70929;SDS011;58588;48.102;19.682;2022-09-03T15:22:00;5.05;;;1.35;;
70929;SDS011;58588;48.102;19.682;2022-09-03T15:25:15;5.30;;;1.38;;
70929;SDS011;58588;48.102;19.682;2022-09-03T15:28:24;6.27;;;1.53;;
70929;SDS011;58588;48.102;19.682;2022-09-03T15:31:42;5.25;;;1.30;;
70929;SDS011;58588;48.102;19.682;2022-09-03T15:34:59;4.40;;;1.20;;
70929;SDS011;58588;48.102;19.682;2022-09-03T15:38:06;4.63;;;1.30;;
70929;SDS011;58588;48.102;19.682;2022-09-03T15:41:17;3.97;;;1.13;;
70929;SDS011;58588;48.102;19.682;2022-09-03T15:44:37;5.20;;;1.17;;
70929;SDS011;58588;48.102;19.682;2022-09-03T15:47:49;5.28;;;1.38;;
70929;SDS011;58588;48.102;19.682;2022-09-03T15:50:57;10.88;;;2.25;;
70929;SDS011;58588;48.102;19.682;2022-09-03T15:54:11;5.15;;;1.50;;
70929;SDS011;58588;48.102;19.682;2022-09-03T15:57:19;14.27;;;2.67;;
70929;SDS011;58588;48.102;19.682;2022-09-03T16:00:26;12.63;;;2.73;;
70929;SDS011;58588;48.102;19.682;2022-09-03T16:03:36;17.25;;;4.25;;
70929;SDS011;58588;48.102;19.682;2022-09-03T16:06:51;10.68;;;2.58;;
70929;SDS011;58588;48.102;19.682;2022-09-03T16:10:00;8.68;;;1.70;;
70929;SDS011;58588;48.102;19.682;2022-09-03T16:13:11;10.73;;;1.67;;
70929;SDS011;58588;48.102;19.682;2022-09-03T16:16:30;10.63;;;2.87;;
70929;SDS011;58588;48.102;19.682;2022-09-03T16:19:51;5.82;;;2.13;;
70929;SDS011;58588;48.102;19.682;2022-09-03T16:23:00;7.03;;;2.00;;
70929;SDS011;58588;48.102;19.682;2022-09-03T16:26:06;11.57;;;2.20;;
70929;SDS011;58588;48.102;19.682;2022-09-03T16:29:14;6.78;;;2.42;;
70929;SDS011;58588;48.102;19.682;2022-09-03T16:32:20;8.50;;;2.57;;
70929;SDS011;58588;48.102;19.682;2022-09-03T16:35:31;8.85;;;2.50;;
70929;SDS011;58588;48.102;19.682;2022-09-03T16:38:46;7.53;;;2.90;;
70929;SDS011;58588;48.102;19.682;2022-09-03T16:41:56;13.18;;;2.75;;
70929;SDS011;58588;48.102;19.682;2022-09-03T16:45:08;5.28;;;1.85;;
70929;SDS011;58588;48.102;19.682;2022-09-03T16:48:21;7.30;;;1.83;;
70929;SDS011;58588;48.102;19.682;2022-09-03T16:51:31;7.55;;;2.17;;
70929;SDS011;58588;48.102;19.682;2022-09-03T16:54:45;10.80;;;2.15;;
70929;SDS011;58588;48.102;19.682;2022-09-03T16:57:58;5.32;;;1.90;;
70929;SDS011;58588;48.102;19.682;2022-09-03T17:01:12;5.57;;;2.00;;
70929;SDS011;58588;48.102;19.682;2022-09-03T17:04:30;5.43;;;1.80;;
70929;SDS011;58588;48.102;19.682;2022-09-03T17:07:49;8.13;;;1.90;;
70929;SDS011;58588;48.102;19.682;2022-09-03T17:11:05;6.47;;;1.70;;
70929;SDS011;58588;48.102;19.682;2022-09-03T17:14:28;5.85;;;2.05;;
70929;SDS011;58588;48.102;19.682;2022-09-03T17:17:59;9.05;;;2.10;;
70929;SDS011;58588;48.102;19.682;2022-09-03T17:21:30;6.17;;;1.90;;
70929;SDS011;58588;48.102;19.682;2022-09-03T17:24:45;6.13;;;1.98;;
70929;SDS011;58588;48.102;19.682;2022-09-03T17:27:58;6.75;;;2.00;;
70929;SDS011;58588;48.102;19.682;2022-09-03T17:31:12;8.93;;;1.95;;
70929;SDS011;58588;48.102;19.682;2022-09-03T17:34:30;4.97;;;1.67;;
70929;SDS011;58588;48.102;19.682;2022-09-03T17:37:49;7.67;;;2.13;;
70929;SDS011;58588;48.102;19.682;2022-09-03T17:41:05;8.02;;;2.30;;
70929;SDS011;58588;48.102;19.682;2022-09-03T17:44:21;6.47;;;2.13;;
70929;SDS011;58588;48.102;19.682;2022-09-03T17:51:05;5.68;;;1.92;;
70929;SDS011;58588;48.102;19.682;2022-09-03T17:54:14;7.13;;;2.00;;
70929;SDS011;58588;48.102;19.682;2022-09-03T17:57:26;6.45;;;2.10;;
70929;SDS011;58588;48.102;19.682;2022-09-03T18:00:34;5.63;;;1.90;;
70929;SDS011;58588;48.102;19.682;2022-09-03T18:03:43;6.00;;;2.22;;
70929;SDS011;58588;48.102;19.682;2022-09-03T18:06:55;7.90;;;2.10;;
70929;SDS011;58588;48.102;19.682;2022-09-03T18:10:07;9.23;;;2.37;;
70929;SDS011;58588;48.102;19.682;2022-09-03T18:13:20;65.25;;;16.88;;
70929;SDS011;58588;48.102;19.682;2022-09-03T18:16:34;72.03;;;18.98;;
70929;SDS011;58588;48.102;19.682;2022-09-03T18:19:42;38.30;;;11.88;;
70929;SDS011;58588;48.102;19.682;2022-09-03T18:23:06;112.80;;;29.73;;
70929;SDS011;58588;48.102;19.682;2022-09-03T18:26:35;196.37;;;50.03;;
70929;SDS011;58588;48.102;19.682;2022-09-03T18:30:00;226.57;;;55.17;;
70929;SDS011;58588;48.102;19.682;2022-09-03T18:33:23;181.85;;;49.88;;
70929;SDS011;58588;48.102;19.682;2022-09-03T18:36:43;134.90;;;37.38;;
70929;SDS011;58588;48.102;19.682;2022-09-03T18:40:04;112.20;;;31.73;;
70929;SDS011;58588;48.102;19.682;2022-09-03T18:43:27;62.17;;;16.40;;
70929;SDS011;58588;48.102;19.682;2022-09-03T18:46:57;32.00;;;10.10;;
70929;SDS011;58588;48.102;19.682;2022-09-03T18:50:25;38.30;;;11.05;;
70929;SDS011;58588;48.102;19.682;2022-09-03T18:53:54;33.38;;;9.15;;
70929;SDS011;58588;48.102;19.682;2022-09-03T18:57:24;28.27;;;7.90;;
70929;SDS011;58588;48.102;19.682;2022-09-03T19:00:51;23.20;;;6.80;;
70929;SDS011;58588;48.102;19.682;2022-09-03T19:04:23;22.27;;;7.18;;
70929;SDS011;58588;48.102;19.682;2022-09-03T19:07:54;27.17;;;7.88;;
70929;SDS011;58588;48.102;19.682;2022-09-03T19:11:23;28.73;;;8.73;;
70929;SDS011;58588;48.102;19.682;2022-09-03T19:14:48;21.30;;;6.60;;
70929;SDS011;58588;48.102;19.682;2022-09-03T19:18:18;12.53;;;4.40;;
70929;SDS011;58588;48.102;19.682;2022-09-03T19:21:48;12.70;;;4.65;;
70929;SDS011;58588;48.102;19.682;2022-09-03T19:25:15;16.08;;;4.47;;
70929;SDS011;58588;48.102;19.682;2022-09-03T19:28:35;13.90;;;4.28;;
70929;SDS011;58588;48.102;19.682;2022-09-03T19:32:02;19.55;;;5.55;;
70929;SDS011;58588;48.102;19.682;2022-09-03T19:35:27;16.93;;;4.60;;
70929;SDS011;58588;48.102;19.682;2022-09-03T19:39:04;11.90;;;4.70;;
70929;SDS011;58588;48.102;19.682;2022-09-03T19:42:40;14.02;;;4.55;;
70929;SDS011;58588;48.102;19.682;2022-09-03T19:46:11;15.60;;;4.78;;
70929;SDS011;58588;48.102;19.682;2022-09-03T19:49:39;15.73;;;4.70;;
70929;SDS011;58588;48.102;19.682;2022-09-03T19:53:09;13.20;;;4.50;;
70929;SDS011;58588;48.102;19.682;2022-09-03T19:56:30;13.52;;;5.10;;
70929;SDS011;58588;48.102;19.682;2022-09-03T19:59:52;17.02;;;5.10;;
70929;SDS011;58588;48.102;19.682;2022-09-03T20:03:12;11.80;;;3.70;;
70929;SDS011;58588;48.102;19.682;2022-09-03T20:06:32;12.38;;;4.03;;
70929;SDS011;58588;48.102;19.682;2022-09-03T20:09:54;9.47;;;3.40;;
70929;SDS011;58588;48.102;19.682;2022-09-03T20:13:17;12.93;;;3.55;;
70929;SDS011;58588;48.102;19.682;2022-09-03T20:16:23;9.63;;;3.53;;
70929;SDS011;58588;48.102;19.682;2022-09-03T20:19:35;9.27;;;3.70;;
70929;SDS011;58588;48.102;19.682;2022-09-03T20:22:46;11.13;;;3.78;;
70929;SDS011;58588;48.102;19.682;2022-09-03T20:25:56;8.73;;;3.40;;
70929;SDS011;58588;48.102;19.682;2022-09-03T20:29:18;8.45;;;3.20;;
70929;SDS011;58588;48.102;19.682;2022-09-03T20:36:12;8.50;;;3.35;;
70929;SDS011;58588;48.102;19.682;2022-09-03T20:39:29;10.63;;;3.28;;
70929;SDS011;58588;48.102;19.682;2022-09-03T20:42:45;9.83;;;3.50;;
70929;SDS011;58588;48.102;19.682;2022-09-03T20:46:09;9.68;;;3.78;;
70929;SDS011;58588;48.102;19.682;2022-09-03T20:49:26;8.57;;;3.70;;
70929;SDS011;58588;48.102;19.682;2022-09-03T20:52:38;9.25;;;3.47;;
70929;SDS011;58588;48.102;19.682;2022-09-03T20:55:48;8.68;;;3.42;;
70929;SDS011;58588;48.102;19.682;2022-09-03T20:58:53;8.90;;;3.77;;
70929;SDS011;58588;48.102;19.682;2022-09-03T21:02:06;12.38;;;3.90;;
70929;SDS011;58588;48.102;19.682;2022-09-03T21:05:21;10.32;;;3.65;;
70929;SDS011;58588;48.102;19.682;2022-09-03T21:08:33;8.55;;;3.80;;
70929;SDS011;58588;48.102;19.682;2022-09-03T21:11:58;10.77;;;3.88;;
70929;SDS011;58588;48.102;19.682;2022-09-03T21:15:08;9.03;;;3.83;;
70929;SDS011;58588;48.102;19.682;2022-09-03T21:18:19;9.18;;;3.67;;
70929;SDS011;58588;48.102;19.682;2022-09-03T21:21:32;14.55;;;4.55;;
70929;SDS011;58588;48.102;19.682;2022-09-03T21:24:43;9.05;;;3.65;;
70929;SDS011;58588;48.102;19.682;2022-09-03T21:27:48;10.18;;;3.60;;
70929;SDS011;58588;48.102;19.682;2022-09-03T21:30:57;8.77;;;3.60;;
70929;SDS011;58588;48.102;19.682;2022-09-03T21:34:06;11.23;;;4.10;;
70929;SDS011;58588;48.102;19.682;2022-09-03T21:37:12;8.15;;;3.70;;
70929;SDS011;58588;48.102;19.682;2022-09-03T21:40:15;9.77;;;3.65;;
70929;SDS011;58588;48.102;19.682;2022-09-03T21:43:20;8.23;;;4.22;;
70929;SDS011;58588;48.102;19.682;2022-09-03T21:46:29;9.53;;;3.70;;
70929;SDS011;58588;48.102;19.682;2022-09-03T21:49:34;10.52;;;4.03;;
70929;SDS011;58588;48.102;19.682;2022-09-03T21:52:45;10.57;;;3.72;;
70929;SDS011;58588;48.102;19.682;2022-09-03T21:55:57;9.65;;;4.03;;
70929;SDS011;58588;48.102;19.682;2022-09-03T21:59:25;8.80;;;3.78;;
70929;SDS011;58588;48.102;19.682;2022-09-03T22:02:50;7.83;;;4.00;;
70929;SDS011;58588;48.102;19.682;2022-09-03T22:05:56;9.18;;;3.92;;
70929;SDS011;58588;48.102;19.682;2022-09-03T22:09:19;8.70;;;3.70;;
70929;SDS011;58588;48.102;19.682;2022-09-03T22:12:27;10.13;;;4.15;;
70929;SDS011;58588;48.102;19.682;2022-09-03T22:15:33;9.57;;;3.70;;
70929;SDS011;58588;48.102;19.682;2022-09-03T22:18:38;7.93;;;3.73;;
70929;SDS011;58588;48.102;19.682;2022-09-03T22:21:41;9.10;;;3.63;;
70929;SDS011;58588;48.102;19.682;2022-09-03T22:25:02;7.93;;;3.65;;
70929;SDS011;58588;48.102;19.682;2022-09-03T22:28:10;8.10;;;4.05;;